Share

Cancun, Mexico

Cancun International (MMUN) Elev 16 ft | 21.04 °N, 86.88 °W | Change Station

Current weather conditions updated 40 minutes ago

Partly Cloudy
Partly Cloudy
63 °F
Feels Like 63 °F
N
6
Wind Variable Wind from NW
Sunrise 6:23 AM
Sunset 7:08 PM
Moon Waning Gibbous

Today is forecast to be nearly the same temperature as yesterday.

Pressure 29.96 in
Visibility 7.0 miles
Clouds Few 1500 ft
Dew Point 61 °F
Humidity 94%
Rainfall 0.00 in
Snow Depth Not available.
UV 0 out of 16
Pollen Not available.
Air Quality Not available.
Flu Activity Not available.
METAR MMUN 210848Z 31005KT 7SM FEW015 17/16 A3003 RMK SLP144 57011 964 8/500

More Conditions Fewer Conditions

Pressure 29.96 in
Visibility 7.0 miles
Clouds Few 1500 ft
Dew Point 61 °F
Humidity 94%
Rainfall 0.00 in
Snow Depth Not available.
UV 0 out of 16
Pollen Not available.
Air Quality Not available.
Flu Activity Not available.
METAR MMUN 210848Z 31005KT 7SM FEW015 17/16 A3003 RMK SLP144 57011 964 8/500

More Conditions Fewer Conditions

10-Day Weather Forecast

Almanac

Astronomy

Apr. 21, 2014 Rise Set
Actual Time 6:23 AM CDT 7:08 PM CDT
Civil Twilight 6:01 AM CDT 7:31 PM CDT
Nautical Twilight 5:34 AM CDT 7:58 PM CDT
Astronomical Twilight 5:07 AM CDT 8:25 PM CDT
Moon 12:27 AM CDT 11:59 AM CDT
Length of Visible Light 13h 30m
Length of Day
12h 44m
Tomorrow will be 1m 6s longer.
Waning Gibbous, 61% of the Moon is Illuminated
Today
Waning Gibbous
Apr 22
Last Quarter
Apr 29
New
May 6
First Quarter
May 14
Full

Yesterday's Extremes

Country Highs Country Lows

Community

  • Snowy Robin
    Snowy Robin
  • Sun Pillar and Geese
    Sun Pillar and Geese
  • Showers on the Way
    Showers on the Way
  • Easter Morning Fog
    Easter Morning Fog
  • Easter Dance
    Easter Dance

WunderPhotos

Upload Photos

1,703,579 photos uploaded!

WunderBlogs® & News

Nearby

Snow Depth

Not available.

Coastal Water Temperatures

Place Temperature
No Stations Reporting

Earthquake Activity

City Distance Mag. Time & Date
No recent earthquake activity has been reported nearby.
Minimum magnitude displayed is 2.5.

Nearby Weather Stations

Station Location Temp. Heat Index Dew Point Humidity Wind Precip. Elev Updated Type
XE3ISS, Cancún 72.0 °F 74 °F 62 °F 71% North  at  0.0 mph 0.00 in / hr 33 ft 4:28 AM CDT Rapid Fire

Show More Stations Show Fewer Stations

What do you think?

We're not finished. Please let us know what you like, what you don't like, and what you are still missing.